ADDS METAR Data

Data at: 0254 UTC 21 Jun 2018

METAR for:KJFK (New York/Kennedy Int, NY, US)
Text:KJFK 210251Z 16006KT 10SM OVC070 22/21 A2979 RMK AO2 RAE0156 SLP086 P0000 60000 T02170206 57000
Temperature: 21.7°C ( 71°F)
Dewpoint: 20.6°C ( 69°F) [RH = 93%]
Pressure (altimeter):29.79 inches Hg (1008.9 mb) [Sea level pressure: 1008.6 mb]
Winds:from the SSE (160 degrees) at 7 MPH (6 knots; 3.1 m/s)
Visibility:10 or more sm (16+ km)
Ceiling:7000 feet AGL
Clouds: overcast cloud deck at 7000 feet AGL